sensor_id;sensor_type;location;lat;lon;timestamp;P1;durP1;ratioP1;P2;durP2;ratioP2
69381;SDS011;56560;50.692;12.844;2023-03-13T00:02:10;11.80;;;2.43;;
69381;SDS011;56560;50.692;12.844;2023-03-13T00:04:35;14.85;;;3.03;;
69381;SDS011;56560;50.692;12.844;2023-03-13T00:07:01;10.57;;;2.80;;
69381;SDS011;56560;50.692;12.844;2023-03-13T00:09:27;13.10;;;3.15;;
69381;SDS011;56560;50.692;12.844;2023-03-13T00:11:52;17.40;;;3.23;;
69381;SDS011;56560;50.692;12.844;2023-03-13T00:14:18;13.35;;;2.85;;
69381;SDS011;56560;50.692;12.844;2023-03-13T00:16:44;13.13;;;2.33;;
69381;SDS011;56560;50.692;12.844;2023-03-13T00:19:09;16.47;;;3.27;;
69381;SDS011;56560;50.692;12.844;2023-03-13T00:21:35;15.48;;;2.80;;
69381;SDS011;56560;50.692;12.844;2023-03-13T00:24:02;15.50;;;3.30;;
69381;SDS011;56560;50.692;12.844;2023-03-13T00:26:28;12.53;;;2.87;;
69381;SDS011;56560;50.692;12.844;2023-03-13T00:28:54;15.65;;;3.90;;
69381;SDS011;56560;50.692;12.844;2023-03-13T00:31:23;12.88;;;3.10;;
69381;SDS011;56560;50.692;12.844;2023-03-13T00:33:51;18.27;;;3.20;;
69381;SDS011;56560;50.692;12.844;2023-03-13T00:36:19;14.27;;;2.53;;
69381;SDS011;56560;50.692;12.844;2023-03-13T00:38:46;10.95;;;2.40;;
69381;SDS011;56560;50.692;12.844;2023-03-13T00:41:13;16.02;;;3.03;;
69381;SDS011;56560;50.692;12.844;2023-03-13T00:43:41;19.70;;;3.50;;
69381;SDS011;56560;50.692;12.844;2023-03-13T00:46:09;12.53;;;2.70;;
69381;SDS011;56560;50.692;12.844;2023-03-13T00:48:35;13.38;;;2.67;;
69381;SDS011;56560;50.692;12.844;2023-03-13T00:51:01;14.57;;;2.88;;
69381;SDS011;56560;50.692;12.844;2023-03-13T00:53:27;14.30;;;2.85;;
69381;SDS011;56560;50.692;12.844;2023-03-13T00:55:54;11.73;;;2.57;;
69381;SDS011;56560;50.692;12.844;2023-03-13T00:58:20;9.70;;;2.25;;
69381;SDS011;56560;50.692;12.844;2023-03-13T01:00:46;14.20;;;3.28;;
69381;SDS011;56560;50.692;12.844;2023-03-13T01:03:12;13.10;;;2.90;;
69381;SDS011;56560;50.692;12.844;2023-03-13T01:05:38;18.08;;;3.53;;
69381;SDS011;56560;50.692;12.844;2023-03-13T01:08:04;15.18;;;2.83;;
69381;SDS011;56560;50.692;12.844;2023-03-13T01:10:29;13.93;;;2.87;;
69381;SDS011;56560;50.692;12.844;2023-03-13T01:12:55;12.07;;;2.88;;
69381;SDS011;56560;50.692;12.844;2023-03-13T01:15:21;10.30;;;2.70;;
69381;SDS011;56560;50.692;12.844;2023-03-13T01:17:46;14.05;;;2.90;;
69381;SDS011;56560;50.692;12.844;2023-03-13T01:20:12;14.07;;;3.00;;
69381;SDS011;56560;50.692;12.844;2023-03-13T01:22:38;9.83;;;1.97;;
69381;SDS011;56560;50.692;12.844;2023-03-13T01:25:03;7.03;;;1.98;;
69381;SDS011;56560;50.692;12.844;2023-03-13T01:27:30;12.00;;;2.45;;
69381;SDS011;56560;50.692;12.844;2023-03-13T01:29:55;5.67;;;1.70;;
69381;SDS011;56560;50.692;12.844;2023-03-13T01:32:21;9.80;;;2.25;;
69381;SDS011;56560;50.692;12.844;2023-03-13T01:34:47;11.37;;;2.90;;
69381;SDS011;56560;50.692;12.844;2023-03-13T01:37:12;18.60;;;2.97;;
69381;SDS011;56560;50.692;12.844;2023-03-13T01:39:38;18.13;;;3.50;;
69381;SDS011;56560;50.692;12.844;2023-03-13T01:42:04;9.45;;;1.92;;
69381;SDS011;56560;50.692;12.844;2023-03-13T01:44:46;13.63;;;2.55;;
69381;SDS011;56560;50.692;12.844;2023-03-13T01:47:15;12.60;;;3.03;;
69381;SDS011;56560;50.692;12.844;2023-03-13T01:49:40;12.23;;;2.47;;
69381;SDS011;56560;50.692;12.844;2023-03-13T01:52:09;11.88;;;2.45;;
69381;SDS011;56560;50.692;12.844;2023-03-13T01:54:58;16.05;;;2.58;;
69381;SDS011;56560;50.692;12.844;2023-03-13T01:57:34;14.68;;;2.92;;
69381;SDS011;56560;50.692;12.844;2023-03-13T02:00:12;13.05;;;3.00;;
69381;SDS011;56560;50.692;12.844;2023-03-13T02:02:41;13.00;;;2.80;;
69381;SDS011;56560;50.692;12.844;2023-03-13T02:05:10;13.02;;;2.42;;
69381;SDS011;56560;50.692;12.844;2023-03-13T02:07:42;13.40;;;2.90;;
69381;SDS011;56560;50.692;12.844;2023-03-13T02:10:21;9.93;;;2.38;;
69381;SDS011;56560;50.692;12.844;2023-03-13T02:12:48;16.55;;;2.70;;
69381;SDS011;56560;50.692;12.844;2023-03-13T02:15:16;10.70;;;2.23;;
69381;SDS011;56560;50.692;12.844;2023-03-13T02:17:44;16.13;;;2.88;;
69381;SDS011;56560;50.692;12.844;2023-03-13T02:20:11;18.95;;;3.30;;
69381;SDS011;56560;50.692;12.844;2023-03-13T02:22:48;13.60;;;2.60;;
69381;SDS011;56560;50.692;12.844;2023-03-13T02:25:38;15.88;;;2.90;;
69381;SDS011;56560;50.692;12.844;2023-03-13T02:28:13;18.03;;;3.07;;
69381;SDS011;56560;50.692;12.844;2023-03-13T02:30:43;15.02;;;3.15;;
69381;SDS011;56560;50.692;12.844;2023-03-13T02:33:10;16.55;;;2.92;;
69381;SDS011;56560;50.692;12.844;2023-03-13T02:35:37;14.32;;;2.85;;
69381;SDS011;56560;50.692;12.844;2023-03-13T02:38:05;16.33;;;3.00;;
69381;SDS011;56560;50.692;12.844;2023-03-13T02:40:35;16.17;;;2.90;;
69381;SDS011;56560;50.692;12.844;2023-03-13T02:43:04;12.25;;;2.30;;
69381;SDS011;56560;50.692;12.844;2023-03-13T02:45:35;13.98;;;2.95;;
69381;SDS011;56560;50.692;12.844;2023-03-13T02:48:00;13.67;;;2.80;;
69381;SDS011;56560;50.692;12.844;2023-03-13T02:50:26;15.07;;;2.58;;
69381;SDS011;56560;50.692;12.844;2023-03-13T02:52:55;14.30;;;2.67;;
69381;SDS011;56560;50.692;12.844;2023-03-13T02:55:35;12.02;;;2.50;;
69381;SDS011;56560;50.692;12.844;2023-03-13T02:58:04;13.13;;;2.70;;
69381;SDS011;56560;50.692;12.844;2023-03-13T03:00:30;11.03;;;2.80;;
69381;SDS011;56560;50.692;12.844;2023-03-13T03:02:56;14.52;;;2.75;;
69381;SDS011;56560;50.692;12.844;2023-03-13T03:05:22;12.65;;;2.75;;
69381;SDS011;56560;50.692;12.844;2023-03-13T03:07:48;12.60;;;2.75;;
69381;SDS011;56560;50.692;12.844;2023-03-13T03:10:14;8.63;;;2.10;;
69381;SDS011;56560;50.692;12.844;2023-03-13T03:12:40;15.95;;;2.55;;
69381;SDS011;56560;50.692;12.844;2023-03-13T03:15:06;12.13;;;2.10;;
69381;SDS011;56560;50.692;12.844;2023-03-13T03:17:33;9.18;;;2.10;;
69381;SDS011;56560;50.692;12.844;2023-03-13T03:19:58;10.18;;;2.03;;
69381;SDS011;56560;50.692;12.844;2023-03-13T03:22:24;9.10;;;1.83;;
69381;SDS011;56560;50.692;12.844;2023-03-13T03:24:50;13.90;;;2.43;;
69381;SDS011;56560;50.692;12.844;2023-03-13T03:27:15;14.93;;;2.60;;
69381;SDS011;56560;50.692;12.844;2023-03-13T03:29:41;9.70;;;2.10;;
69381;SDS011;56560;50.692;12.844;2023-03-13T03:32:06;15.60;;;1.97;;
69381;SDS011;56560;50.692;12.844;2023-03-13T03:34:32;13.38;;;2.88;;
69381;SDS011;56560;50.692;12.844;2023-03-13T03:36:58;11.77;;;2.30;;
69381;SDS011;56560;50.692;12.844;2023-03-13T03:39:23;12.85;;;2.90;;
69381;SDS011;56560;50.692;12.844;2023-03-13T03:41:49;11.87;;;2.60;;
69381;SDS011;56560;50.692;12.844;2023-03-13T03:44:15;14.90;;;2.60;;
69381;SDS011;56560;50.692;12.844;2023-03-13T03:46:40;8.07;;;2.07;;
69381;SDS011;56560;50.692;12.844;2023-03-13T03:49:06;6.50;;;1.50;;
69381;SDS011;56560;50.692;12.844;2023-03-13T03:51:31;8.63;;;2.00;;
69381;SDS011;56560;50.692;12.844;2023-03-13T03:53:57;16.07;;;2.83;;
69381;SDS011;56560;50.692;12.844;2023-03-13T03:56:23;9.77;;;2.22;;
69381;SDS011;56560;50.692;12.844;2023-03-13T03:58:48;11.27;;;2.50;;
69381;SDS011;56560;50.692;12.844;2023-03-13T04:01:14;9.63;;;1.60;;
69381;SDS011;56560;50.692;12.844;2023-03-13T04:03:39;12.95;;;2.15;;
69381;SDS011;56560;50.692;12.844;2023-03-13T04:06:05;9.50;;;2.60;;
69381;SDS011;56560;50.692;12.844;2023-03-13T04:08:31;10.88;;;2.35;;
69381;SDS011;56560;50.692;12.844;2023-03-13T04:10:58;6.45;;;1.33;;
69381;SDS011;56560;50.692;12.844;2023-03-13T04:13:25;8.77;;;1.77;;
69381;SDS011;56560;50.692;12.844;2023-03-13T04:15:51;10.82;;;2.20;;
69381;SDS011;56560;50.692;12.844;2023-03-13T04:18:17;8.63;;;2.07;;
69381;SDS011;56560;50.692;12.844;2023-03-13T04:20:42;10.95;;;2.17;;
69381;SDS011;56560;50.692;12.844;2023-03-13T04:23:08;11.97;;;2.20;;
69381;SDS011;56560;50.692;12.844;2023-03-13T04:25:34;7.43;;;2.22;;
69381;SDS011;56560;50.692;12.844;2023-03-13T04:28:00;12.55;;;2.10;;
69381;SDS011;56560;50.692;12.844;2023-03-13T04:30:26;11.23;;;2.10;;
69381;SDS011;56560;50.692;12.844;2023-03-13T04:32:51;11.27;;;2.22;;
69381;SDS011;56560;50.692;12.844;2023-03-13T04:35:17;8.80;;;1.80;;
69381;SDS011;56560;50.692;12.844;2023-03-13T04:37:44;9.55;;;2.25;;
69381;SDS011;56560;50.692;12.844;2023-03-13T04:40:09;8.10;;;1.90;;
69381;SDS011;56560;50.692;12.844;2023-03-13T04:42:37;9.43;;;2.13;;
69381;SDS011;56560;50.692;12.844;2023-03-13T04:45:03;7.70;;;1.80;;
69381;SDS011;56560;50.692;12.844;2023-03-13T04:47:29;11.90;;;2.97;;
69381;SDS011;56560;50.692;12.844;2023-03-13T04:49:54;11.63;;;2.47;;
69381;SDS011;56560;50.692;12.844;2023-03-13T04:52:20;12.77;;;2.13;;
69381;SDS011;56560;50.692;12.844;2023-03-13T04:54:46;12.07;;;2.60;;
69381;SDS011;56560;50.692;12.844;2023-03-13T04:57:11;13.65;;;2.55;;
69381;SDS011;56560;50.692;12.844;2023-03-13T04:59:37;10.38;;;2.28;;
69381;SDS011;56560;50.692;12.844;2023-03-13T05:02:03;12.20;;;2.60;;
69381;SDS011;56560;50.692;12.844;2023-03-13T05:04:28;12.33;;;2.30;;
69381;SDS011;56560;50.692;12.844;2023-03-13T05:06:54;11.02;;;2.35;;
69381;SDS011;56560;50.692;12.844;2023-03-13T05:09:20;14.60;;;2.67;;
69381;SDS011;56560;50.692;12.844;2023-03-13T05:11:45;7.77;;;2.03;;
69381;SDS011;56560;50.692;12.844;2023-03-13T05:14:11;9.43;;;2.00;;
69381;SDS011;56560;50.692;12.844;2023-03-13T05:16:37;12.10;;;2.50;;
69381;SDS011;56560;50.692;12.844;2023-03-13T05:19:03;9.23;;;1.92;;
69381;SDS011;56560;50.692;12.844;2023-03-13T05:21:29;9.07;;;2.40;;
69381;SDS011;56560;50.692;12.844;2023-03-13T05:23:54;9.38;;;2.00;;
69381;SDS011;56560;50.692;12.844;2023-03-13T05:26:20;10.67;;;2.07;;
69381;SDS011;56560;50.692;12.844;2023-03-13T05:28:46;13.10;;;2.22;;
69381;SDS011;56560;50.692;12.844;2023-03-13T05:31:11;6.47;;;2.00;;
69381;SDS011;56560;50.692;12.844;2023-03-13T05:33:37;9.00;;;2.57;;
69381;SDS011;56560;50.692;12.844;2023-03-13T05:36:02;9.50;;;2.05;;
69381;SDS011;56560;50.692;12.844;2023-03-13T05:38:28;10.00;;;2.40;;
69381;SDS011;56560;50.692;12.844;2023-03-13T05:40:54;9.50;;;2.50;;
69381;SDS011;56560;50.692;12.844;2023-03-13T05:43:19;9.30;;;2.40;;
69381;SDS011;56560;50.692;12.844;2023-03-13T05:45:45;6.23;;;1.90;;
69381;SDS011;56560;50.692;12.844;2023-03-13T05:48:10;9.20;;;2.05;;
69381;SDS011;56560;50.692;12.844;2023-03-13T05:50:36;6.30;;;1.70;;
69381;SDS011;56560;50.692;12.844;2023-03-13T05:53:02;10.80;;;2.75;;
69381;SDS011;56560;50.692;12.844;2023-03-13T05:55:27;10.95;;;1.63;;
69381;SDS011;56560;50.692;12.844;2023-03-13T05:57:53;9.03;;;2.00;;
69381;SDS011;56560;50.692;12.844;2023-03-13T06:00:18;6.18;;;2.20;;
69381;SDS011;56560;50.692;12.844;2023-03-13T06:02:44;8.53;;;2.40;;
69381;SDS011;56560;50.692;12.844;2023-03-13T06:05:10;15.98;;;2.50;;
69381;SDS011;56560;50.692;12.844;2023-03-13T06:07:36;12.03;;;2.63;;
69381;SDS011;56560;50.692;12.844;2023-03-13T06:10:02;7.50;;;2.03;;
69381;SDS011;56560;50.692;12.844;2023-03-13T06:12:28;7.97;;;1.98;;
69381;SDS011;56560;50.692;12.844;2023-03-13T06:14:54;8.35;;;1.90;;
69381;SDS011;56560;50.692;12.844;2023-03-13T06:17:20;9.70;;;2.27;;
69381;SDS011;56560;50.692;12.844;2023-03-13T06:19:45;10.87;;;2.50;;
69381;SDS011;56560;50.692;12.844;2023-03-13T06:22:11;5.28;;;1.40;;
69381;SDS011;56560;50.692;12.844;2023-03-13T06:24:37;12.30;;;2.50;;
69381;SDS011;56560;50.692;12.844;2023-03-13T06:27:04;6.55;;;2.00;;
69381;SDS011;56560;50.692;12.844;2023-03-13T06:29:31;7.80;;;1.90;;
69381;SDS011;56560;50.692;12.844;2023-03-13T06:31:57;10.75;;;2.60;;
69381;SDS011;56560;50.692;12.844;2023-03-13T06:34:22;5.10;;;1.53;;
69381;SDS011;56560;50.692;12.844;2023-03-13T06:36:48;7.90;;;1.90;;
69381;SDS011;56560;50.692;12.844;2023-03-13T06:39:13;10.82;;;2.20;;
69381;SDS011;56560;50.692;12.844;2023-03-13T06:41:39;11.60;;;1.93;;
69381;SDS011;56560;50.692;12.844;2023-03-13T06:44:05;9.65;;;2.15;;
69381;SDS011;56560;50.692;12.844;2023-03-13T06:46:30;6.20;;;1.90;;
69381;SDS011;56560;50.692;12.844;2023-03-13T06:48:56;9.13;;;1.90;;
69381;SDS011;56560;50.692;12.844;2023-03-13T06:51:22;18.40;;;6.53;;
69381;SDS011;56560;50.692;12.844;2023-03-13T06:53:50;27.60;;;11.10;;
69381;SDS011;56560;50.692;12.844;2023-03-13T06:56:16;21.48;;;7.32;;
69381;SDS011;56560;50.692;12.844;2023-03-13T06:58:44;17.80;;;6.00;;
69381;SDS011;56560;50.692;12.844;2023-03-13T07:01:12;33.53;;;12.57;;
69381;SDS011;56560;50.692;12.844;2023-03-13T07:03:38;8.27;;;2.20;;
69381;SDS011;56560;50.692;12.844;2023-03-13T07:06:08;7.78;;;2.00;;
69381;SDS011;56560;50.692;12.844;2023-03-13T07:08:35;7.53;;;2.08;;
69381;SDS011;56560;50.692;12.844;2023-03-13T07:11:05;7.22;;;1.95;;
69381;SDS011;56560;50.692;12.844;2023-03-13T07:13:32;5.10;;;1.27;;
69381;SDS011;56560;50.692;12.844;2023-03-13T07:15:59;5.20;;;1.90;;
69381;SDS011;56560;50.692;12.844;2023-03-13T07:18:29;5.03;;;1.48;;
69381;SDS011;56560;50.692;12.844;2023-03-13T07:20:57;5.75;;;1.40;;
69381;SDS011;56560;50.692;12.844;2023-03-13T07:23:24;5.97;;;1.60;;
69381;SDS011;56560;50.692;12.844;2023-03-13T07:25:52;7.10;;;1.93;;
69381;SDS011;56560;50.692;12.844;2023-03-13T07:28:22;6.28;;;1.60;;
69381;SDS011;56560;50.692;12.844;2023-03-13T07:30:48;6.00;;;1.60;;
69381;SDS011;56560;50.692;12.844;2023-03-13T07:33:14;9.85;;;1.90;;
69381;SDS011;56560;50.692;12.844;2023-03-13T07:35:40;7.23;;;1.53;;
69381;SDS011;56560;50.692;12.844;2023-03-13T07:38:11;3.70;;;1.38;;
69381;SDS011;56560;50.692;12.844;2023-03-13T07:40:36;3.58;;;1.33;;
69381;SDS011;56560;50.692;12.844;2023-03-13T07:43:02;5.07;;;1.42;;
69381;SDS011;56560;50.692;12.844;2023-03-13T07:45:28;2.93;;;1.17;;
69381;SDS011;56560;50.692;12.844;2023-03-13T07:47:53;3.78;;;1.30;;
69381;SDS011;56560;50.692;12.844;2023-03-13T07:50:19;3.93;;;1.30;;
69381;SDS011;56560;50.692;12.844;2023-03-13T07:52:45;3.97;;;1.48;;
69381;SDS011;56560;50.692;12.844;2023-03-13T07:55:10;3.97;;;1.27;;
69381;SDS011;56560;50.692;12.844;2023-03-13T07:57:36;3.07;;;1.03;;
69381;SDS011;56560;50.692;12.844;2023-03-13T08:00:02;5.63;;;1.30;;
69381;SDS011;56560;50.692;12.844;2023-03-13T08:02:29;4.63;;;1.42;;
69381;SDS011;56560;50.692;12.844;2023-03-13T08:04:54;3.17;;;1.10;;
69381;SDS011;56560;50.692;12.844;2023-03-13T08:07:20;4.00;;;1.60;;
69381;SDS011;56560;50.692;12.844;2023-03-13T08:09:46;3.92;;;1.40;;
69381;SDS011;56560;50.692;12.844;2023-03-13T08:12:11;6.30;;;1.43;;
69381;SDS011;56560;50.692;12.844;2023-03-13T08:14:37;5.25;;;1.40;;
69381;SDS011;56560;50.692;12.844;2023-03-13T08:17:03;3.73;;;1.30;;
69381;SDS011;56560;50.692;12.844;2023-03-13T08:19:28;4.22;;;1.35;;
69381;SDS011;56560;50.692;12.844;2023-03-13T08:21:54;3.77;;;1.10;;
69381;SDS011;56560;50.692;12.844;2023-03-13T08:24:20;3.95;;;1.35;;
69381;SDS011;56560;50.692;12.844;2023-03-13T08:26:45;5.67;;;1.60;;
69381;SDS011;56560;50.692;12.844;2023-03-13T08:29:12;3.97;;;1.52;;
69381;SDS011;56560;50.692;12.844;2023-03-13T08:31:46;4.73;;;1.30;;
69381;SDS011;56560;50.692;12.844;2023-03-13T08:34:13;3.28;;;1.23;;
69381;SDS011;56560;50.692;12.844;2023-03-13T08:36:39;4.53;;;1.40;;
69381;SDS011;56560;50.692;12.844;2023-03-13T08:39:06;5.10;;;1.50;;
69381;SDS011;56560;50.692;12.844;2023-03-13T08:41:38;22.02;;;7.78;;
69381;SDS011;56560;50.692;12.844;2023-03-13T08:44:08;17.77;;;7.67;;
69381;SDS011;56560;50.692;12.844;2023-03-13T08:46:36;11.88;;;4.07;;
69381;SDS011;56560;50.692;12.844;2023-03-13T08:49:02;16.60;;;5.65;;
69381;SDS011;56560;50.692;12.844;2023-03-13T08:51:29;18.20;;;6.85;;
69381;SDS011;56560;50.692;12.844;2023-03-13T08:53:55;41.07;;;15.43;;
69381;SDS011;56560;50.692;12.844;2023-03-13T08:56:25;42.25;;;13.20;;
69381;SDS011;56560;50.692;12.844;2023-03-13T08:58:53;10.60;;;3.65;;
69381;SDS011;56560;50.692;12.844;2023-03-13T09:01:21;6.30;;;1.95;;
69381;SDS011;56560;50.692;12.844;2023-03-13T09:03:48;5.33;;;1.57;;
69381;SDS011;56560;50.692;12.844;2023-03-13T09:06:14;4.88;;;1.55;;
69381;SDS011;56560;50.692;12.844;2023-03-13T09:08:42;4.45;;;1.42;;
69381;SDS011;56560;50.692;12.844;2023-03-13T09:11:12;5.35;;;1.70;;
69381;SDS011;56560;50.692;12.844;2023-03-13T09:13:41;3.35;;;1.40;;
69381;SDS011;56560;50.692;12.844;2023-03-13T09:16:12;4.33;;;1.53;;
69381;SDS011;56560;50.692;12.844;2023-03-13T09:18:42;3.97;;;1.40;;
69381;SDS011;56560;50.692;12.844;2023-03-13T09:21:09;4.80;;;1.35;;
69381;SDS011;56560;50.692;12.844;2023-03-13T09:23:37;3.47;;;1.40;;
69381;SDS011;56560;50.692;12.844;2023-03-13T09:26:03;3.70;;;1.20;;
69381;SDS011;56560;50.692;12.844;2023-03-13T09:28:29;2.72;;;0.93;;
69381;SDS011;56560;50.692;12.844;2023-03-13T09:30:54;4.82;;;1.52;;
69381;SDS011;56560;50.692;12.844;2023-03-13T09:33:29;4.18;;;1.50;;
69381;SDS011;56560;50.692;12.844;2023-03-13T09:35:55;2.50;;;1.20;;
69381;SDS011;56560;50.692;12.844;2023-03-13T09:38:20;2.73;;;1.20;;
69381;SDS011;56560;50.692;12.844;2023-03-13T09:40:47;2.00;;;1.10;;
69381;SDS011;56560;50.692;12.844;2023-03-13T09:43:18;3.17;;;1.10;;
69381;SDS011;56560;50.692;12.844;2023-03-13T09:46:05;2.67;;;1.07;;
69381;SDS011;56560;50.692;12.844;2023-03-13T09:48:48;1.40;;;0.88;;
69381;SDS011;56560;50.692;12.844;2023-03-13T09:51:34;2.15;;;0.90;;
69381;SDS011;56560;50.692;12.844;2023-03-13T09:54:14;3.08;;;1.33;;
69381;SDS011;56560;50.692;12.844;2023-03-13T09:59:36;3.57;;;1.17;;
69381;SDS011;56560;50.692;12.844;2023-03-13T10:02:17;2.58;;;1.20;;
69381;SDS011;56560;50.692;12.844;2023-03-13T10:04:56;1.83;;;1.00;;
69381;SDS011;56560;50.692;12.844;2023-03-13T10:07:37;1.80;;;0.98;;
69381;SDS011;56560;50.692;12.844;2023-03-13T10:10:05;3.53;;;1.30;;
69381;SDS011;56560;50.692;12.844;2023-03-13T10:12:40;3.15;;;1.40;;
69381;SDS011;56560;50.692;12.844;2023-03-13T10:17:41;3.58;;;1.00;;
69381;SDS011;56560;50.692;12.844;2023-03-13T10:22:51;3.28;;;1.13;;
69381;SDS011;56560;50.692;12.844;2023-03-13T10:25:29;3.03;;;1.40;;
69381;SDS011;56560;50.692;12.844;2023-03-13T10:27:57;4.82;;;1.73;;
69381;SDS011;56560;50.692;12.844;2023-03-13T10:33:00;2.63;;;1.20;;
69381;SDS011;56560;50.692;12.844;2023-03-13T10:35:33;5.43;;;1.45;;
69381;SDS011;56560;50.692;12.844;2023-03-13T10:38:03;3.30;;;1.45;;
69381;SDS011;56560;50.692;12.844;2023-03-13T10:40:36;2.60;;;1.10;;
69381;SDS011;56560;50.692;12.844;2023-03-13T10:43:24;3.80;;;1.52;;
69381;SDS011;56560;50.692;12.844;2023-03-13T10:45:50;3.35;;;1.23;;
69381;SDS011;56560;50.692;12.844;2023-03-13T10:48:24;3.90;;;1.30;;
69381;SDS011;56560;50.692;12.844;2023-03-13T10:50:54;3.13;;;1.02;;
69381;SDS011;56560;50.692;12.844;2023-03-13T10:55:47;3.90;;;1.40;;
69381;SDS011;56560;50.692;12.844;2023-03-13T10:58:25;3.15;;;1.40;;
69381;SDS011;56560;50.692;12.844;2023-03-13T11:00:53;4.22;;;1.13;;
69381;SDS011;56560;50.692;12.844;2023-03-13T11:03:40;6.75;;;2.30;;
69381;SDS011;56560;50.692;12.844;2023-03-13T11:06:14;6.57;;;2.05;;
69381;SDS011;56560;50.692;12.844;2023-03-13T11:11:47;5.15;;;2.10;;
69381;SDS011;56560;50.692;12.844;2023-03-13T11:14:14;4.47;;;1.80;;
69381;SDS011;56560;50.692;12.844;2023-03-13T11:16:45;3.28;;;1.60;;
69381;SDS011;56560;50.692;12.844;2023-03-13T11:24:48;3.45;;;1.40;;
69381;SDS011;56560;50.692;12.844;2023-03-13T11:30:14;4.70;;;1.70;;
69381;SDS011;56560;50.692;12.844;2023-03-13T11:33:03;2.88;;;1.30;;
69381;SDS011;56560;50.692;12.844;2023-03-13T11:35:41;4.78;;;1.70;;
69381;SDS011;56560;50.692;12.844;2023-03-13T11:38:23;3.80;;;1.60;;
69381;SDS011;56560;50.692;12.844;2023-03-13T11:55:34;3.15;;;1.60;;
69381;SDS011;56560;50.692;12.844;2023-03-13T11:58:24;4.88;;;1.30;;
69381;SDS011;56560;50.692;12.844;2023-03-13T12:01:11;3.85;;;1.60;;
69381;SDS011;56560;50.692;12.844;2023-03-13T12:06:31;4.63;;;1.40;;
69381;SDS011;56560;50.692;12.844;2023-03-13T12:09:05;2.58;;;1.27;;
69381;SDS011;56560;50.692;12.844;2023-03-13T12:12:01;5.00;;;1.48;;
69381;SDS011;56560;50.692;12.844;2023-03-13T12:14:50;4.15;;;1.55;;
69381;SDS011;56560;50.692;12.844;2023-03-13T12:17:27;4.00;;;1.70;;
69381;SDS011;56560;50.692;12.844;2023-03-13T12:20:10;4.43;;;1.60;;
69381;SDS011;56560;50.692;12.844;2023-03-13T12:25:43;2.50;;;1.10;;
69381;SDS011;56560;50.692;12.844;2023-03-13T12:33:52;2.95;;;1.38;;
69381;SDS011;56560;50.692;12.844;2023-03-13T12:36:32;5.63;;;1.45;;
69381;SDS011;56560;50.692;12.844;2023-03-13T12:39:51;2.03;;;1.20;;
69381;SDS011;56560;50.692;12.844;2023-03-13T12:44:44;3.88;;;1.45;;
69381;SDS011;56560;50.692;12.844;2023-03-13T12:49:55;5.95;;;1.60;;
69381;SDS011;56560;50.692;12.844;2023-03-13T13:00:51;2.85;;;1.40;;
69381;SDS011;56560;50.692;12.844;2023-03-13T13:03:24;6.00;;;1.75;;
69381;SDS011;56560;50.692;12.844;2023-03-13T13:05:58;5.28;;;2.10;;
69381;SDS011;56560;50.692;12.844;2023-03-13T13:08:32;3.23;;;1.50;;
69381;SDS011;56560;50.692;12.844;2023-03-13T13:13:57;6.03;;;2.10;;
69381;SDS011;56560;50.692;12.844;2023-03-13T13:16:23;5.90;;;2.20;;
69381;SDS011;56560;50.692;12.844;2023-03-13T13:18:50;9.80;;;2.10;;
69381;SDS011;56560;50.692;12.844;2023-03-13T13:23:53;5.38;;;1.80;;
69381;SDS011;56560;50.692;12.844;2023-03-13T13:26:59;5.43;;;1.60;;
69381;SDS011;56560;50.692;12.844;2023-03-13T13:31:54;5.60;;;1.70;;
69381;SDS011;56560;50.692;12.844;2023-03-13T13:36:57;5.13;;;1.80;;
69381;SDS011;56560;50.692;12.844;2023-03-13T13:47:48;4.68;;;1.40;;
69381;SDS011;56560;50.692;12.844;2023-03-13T13:50:18;4.13;;;1.58;;
69381;SDS011;56560;50.692;12.844;2023-03-13T13:52:46;5.68;;;2.13;;
69381;SDS011;56560;50.692;12.844;2023-03-13T13:55:30;4.77;;;2.00;;
69381;SDS011;56560;50.692;12.844;2023-03-13T13:58:08;3.10;;;1.33;;
69381;SDS011;56560;50.692;12.844;2023-03-13T14:00:49;5.80;;;1.83;;
69381;SDS011;56560;50.692;12.844;2023-03-13T14:03:23;3.78;;;1.67;;
69381;SDS011;56560;50.692;12.844;2023-03-13T14:05:51;5.95;;;2.22;;
69381;SDS011;56560;50.692;12.844;2023-03-13T14:08:29;8.90;;;2.00;;
69381;SDS011;56560;50.692;12.844;2023-03-13T14:16:34;5.28;;;1.80;;
69381;SDS011;56560;50.692;12.844;2023-03-13T14:19:02;3.40;;;1.63;;
69381;SDS011;56560;50.692;12.844;2023-03-13T14:21:27;9.43;;;2.00;;
69381;SDS011;56560;50.692;12.844;2023-03-13T14:23:53;3.33;;;1.40;;
69381;SDS011;56560;50.692;12.844;2023-03-13T14:28:50;3.80;;;1.60;;
69381;SDS011;56560;50.692;12.844;2023-03-13T14:31:29;4.82;;;1.90;;
69381;SDS011;56560;50.692;12.844;2023-03-13T14:34:19;4.28;;;1.55;;
69381;SDS011;56560;50.692;12.844;2023-03-13T14:39:20;4.10;;;1.60;;
69381;SDS011;56560;50.692;12.844;2023-03-13T14:42:10;5.28;;;1.48;;
69381;SDS011;56560;50.692;12.844;2023-03-13T14:44:38;3.35;;;1.45;;
69381;SDS011;56560;50.692;12.844;2023-03-13T14:47:07;4.10;;;1.50;;
69381;SDS011;56560;50.692;12.844;2023-03-13T14:49:44;3.10;;;1.45;;
69381;SDS011;56560;50.692;12.844;2023-03-13T14:54:55;6.03;;;1.75;;
69381;SDS011;56560;50.692;12.844;2023-03-13T14:57:25;5.20;;;2.03;;
69381;SDS011;56560;50.692;12.844;2023-03-13T14:59:51;6.40;;;2.13;;
69381;SDS011;56560;50.692;12.844;2023-03-13T15:02:22;5.18;;;2.05;;
69381;SDS011;56560;50.692;12.844;2023-03-13T15:12:46;7.10;;;2.00;;
69381;SDS011;56560;50.692;12.844;2023-03-13T15:15:13;5.97;;;1.90;;
69381;SDS011;56560;50.692;12.844;2023-03-13T15:17:38;4.33;;;1.60;;
69381;SDS011;56560;50.692;12.844;2023-03-13T15:20:04;6.93;;;1.80;;
69381;SDS011;56560;50.692;12.844;2023-03-13T15:22:35;4.65;;;1.70;;
69381;SDS011;56560;50.692;12.844;2023-03-13T15:25:03;4.78;;;1.73;;
69381;SDS011;56560;50.692;12.844;2023-03-13T15:27:42;4.85;;;1.77;;
69381;SDS011;56560;50.692;12.844;2023-03-13T15:30:12;5.80;;;2.30;;
69381;SDS011;56560;50.692;12.844;2023-03-13T15:32:42;6.65;;;2.58;;
69381;SDS011;56560;50.692;12.844;2023-03-13T15:35:19;4.28;;;1.70;;
69381;SDS011;56560;50.692;12.844;2023-03-13T15:37:49;4.35;;;1.63;;
69381;SDS011;56560;50.692;12.844;2023-03-13T15:40:15;5.95;;;2.17;;
69381;SDS011;56560;50.692;12.844;2023-03-13T15:42:41;6.70;;;2.50;;
69381;SDS011;56560;50.692;12.844;2023-03-13T15:45:07;5.28;;;1.80;;
69381;SDS011;56560;50.692;12.844;2023-03-13T15:47:33;5.55;;;1.88;;
69381;SDS011;56560;50.692;12.844;2023-03-13T15:49:59;5.70;;;1.97;;
69381;SDS011;56560;50.692;12.844;2023-03-13T15:52:25;3.95;;;1.50;;
69381;SDS011;56560;50.692;12.844;2023-03-13T15:54:50;4.93;;;1.60;;
69381;SDS011;56560;50.692;12.844;2023-03-13T15:57:20;4.78;;;1.70;;
69381;SDS011;56560;50.692;12.844;2023-03-13T15:59:49;5.47;;;2.00;;
69381;SDS011;56560;50.692;12.844;2023-03-13T16:02:17;6.75;;;2.30;;
69381;SDS011;56560;50.692;12.844;2023-03-13T16:04:44;7.15;;;2.50;;
69381;SDS011;56560;50.692;12.844;2023-03-13T16:07:10;4.53;;;1.98;;
69381;SDS011;56560;50.692;12.844;2023-03-13T16:09:38;3.88;;;1.80;;
69381;SDS011;56560;50.692;12.844;2023-03-13T16:12:05;5.73;;;2.10;;
69381;SDS011;56560;50.692;12.844;2023-03-13T16:14:31;5.72;;;2.10;;
69381;SDS011;56560;50.692;12.844;2023-03-13T16:16:57;6.35;;;2.28;;
69381;SDS011;56560;50.692;12.844;2023-03-13T16:19:23;8.07;;;2.60;;
69381;SDS011;56560;50.692;12.844;2023-03-13T16:21:48;7.68;;;2.67;;
69381;SDS011;56560;50.692;12.844;2023-03-13T16:24:16;8.20;;;2.53;;
69381;SDS011;56560;50.692;12.844;2023-03-13T16:26:45;8.33;;;2.30;;